Time;durP1;ratioP1;P1;durP2;ratioP2;P2;SDS_P1;SDS_P2;PMS_P1;PMS_P2;Temp;Humidity;BMP_temperature;BMP_pressure;BME280_temperature;BME280_humidity;BME280_pressure;Samples;Min_cycle;Max_cycle;Signal;HPM_P1;HPM_P2
2022/04/15 00:02:54;;;;;;;30.30;19.70;;;;;;;4.83;100.00;100454.73;1785453;79;21205;-82
2022/04/15 00:06:01;;;;;;;26.80;19.52;;;;;;;4.82;100.00;100450.31;1792102;79;21256;-82
2022/04/15 00:09:06;;;;;;;27.67;17.07;;;;;;;4.80;100.00;100450.96;1771432;79;21208;-81
2022/04/15 00:12:17;;;;;;;27.98;18.87;;;;;;;4.77;100.00;100449.86;1792469;79;21221;-82
2022/04/15 00:15:21;;;;;;;25.82;17.65;;;;;;;4.76;100.00;100453.58;1790702;79;21232;-82
2022/04/15 00:18:27;;;;;;;24.67;18.07;;;;;;;4.74;100.00;100452.83;1788860;78;21780;-82
2022/04/15 00:21:34;;;;;;;27.40;18.27;;;;;;;4.71;100.00;100446.35;1786054;79;21169;-82
2022/04/15 00:24:39;;;;;;;25.60;18.27;;;;;;;4.67;100.00;100445.40;1777908;79;21197;-82
2022/04/15 00:27:47;;;;;;;26.87;19.15;;;;;;;4.63;100.00;100447.52;1783191;78;21268;-82
2022/04/15 00:30:54;;;;;;;29.52;19.07;;;;;;;4.61;100.00;100446.30;1770578;79;21196;-82
2022/04/15 00:34:01;;;;;;;24.10;17.05;;;;;;;4.59;100.00;100451.48;1782970;79;21774;-81
2022/04/15 00:37:06;;;;;;;27.07;17.73;;;;;;;4.57;100.00;100453.48;1781761;79;21225;-82
2022/04/15 00:40:14;;;;;;;25.35;18.45;;;;;;;4.56;100.00;100453.09;1787751;79;21216;-82
2022/04/15 00:43:19;;;;;;;32.03;18.90;;;;;;;4.54;100.00;100461.36;1783601;79;21169;-82
2022/04/15 00:46:25;;;;;;;34.85;20.02;;;;;;;4.52;100.00;100453.03;1791852;79;21158;-82
2022/04/15 00:49:32;;;;;;;26.23;17.02;;;;;;;4.47;100.00;100452.08;1782353;79;21157;-82
2022/04/15 00:52:47;;;;;;;24.25;17.32;;;;;;;4.45;100.00;100451.83;1789776;79;21810;-81
2022/04/15 00:55:53;;;;;;;28.02;18.42;;;;;;;4.42;100.00;100451.59;1790572;79;21306;-81
2022/04/15 00:58:58;;;;;;;27.82;18.15;;;;;;;4.41;100.00;100449.02;1781752;79;21258;-82
2022/04/15 01:02:04;;;;;;;26.33;18.45;;;;;;;4.38;100.00;100443.89;1786618;79;21188;-82
2022/04/15 01:05:13;;;;;;;26.10;17.40;;;;;;;4.36;100.00;100446.21;1784655;79;21161;-77
2022/04/15 01:08:21;;;;;;;23.30;17.20;;;;;;;4.36;100.00;100450.77;1787191;79;21193;-82
2022/04/15 01:11:27;;;;;;;23.75;15.65;;;;;;;4.33;100.00;100446.50;1775337;79;21164;-78
2022/04/15 01:14:32;;;;;;;25.32;17.20;;;;;;;4.30;100.00;100446.75;1784110;79;21203;-77
2022/04/15 01:17:37;;;;;;;22.45;14.98;;;;;;;4.28;100.00;100447.39;1792597;79;21213;-77
2022/04/15 01:20:46;;;;;;;22.82;17.35;;;;;;;4.26;100.00;100453.42;1793575;79;21787;-77
2022/04/15 01:23:51;;;;;;;21.50;15.70;;;;;;;4.24;100.00;100446.44;1776555;79;21192;-77
2022/04/15 01:26:57;;;;;;;25.23;17.90;;;;;;;4.21;100.00;100443.48;1785835;79;21240;-77
2022/04/15 01:30:04;;;;;;;27.10;16.10;;;;;;;4.19;100.00;100439.18;1774203;79;21248;-78
2022/04/15 01:33:09;;;;;;;23.55;15.48;;;;;;;4.16;100.00;100440.31;1788190;79;21802;-77
2022/04/15 01:36:17;;;;;;;25.35;17.32;;;;;;;4.15;100.00;100442.67;1792376;79;21228;-77
2022/04/15 01:39:23;;;;;;;25.75;15.95;;;;;;;4.12;100.00;100456.45;1788323;79;21173;-77
2022/04/15 01:42:29;;;;;;;22.65;13.90;;;;;;;4.09;100.00;100456.70;1796359;79;21255;-77
2022/04/15 01:45:35;;;;;;;25.32;13.03;;;;;;;4.04;100.00;100456.25;1788548;79;21813;-77
2022/04/15 01:48:41;;;;;;;22.13;14.68;;;;;;;4.01;100.00;100453.82;1795773;78;21177;-77
2022/04/15 01:51:47;;;;;;;22.93;10.93;;;;;;;3.94;100.00;100456.17;1770637;79;21569;-77
2022/04/15 01:54:54;;;;;;;25.57;17.12;;;;;;;3.92;100.00;100455.95;1795314;79;21790;-77
2022/04/15 01:57:59;;;;;;;27.85;18.98;;;;;;;3.84;100.00;100457.45;1787935;79;21218;-77
2022/04/15 02:01:06;;;;;;;26.93;18.02;;;;;;;3.84;100.00;100457.95;1790891;79;21210;-77
2022/04/15 02:04:13;;;;;;;28.25;19.30;;;;;;;3.85;100.00;100451.53;1788289;79;21793;-77
2022/04/15 02:07:19;;;;;;;28.67;18.55;;;;;;;3.88;100.00;100451.78;1789020;79;21220;-77
2022/04/15 02:10:25;;;;;;;30.95;19.67;;;;;;;3.91;100.00;100458.30;1791343;79;21763;-76
2022/04/15 02:13:31;;;;;;;26.52;17.07;;;;;;;3.93;100.00;100449.55;1780721;79;21181;-77
2022/04/15 02:16:38;;;;;;;31.42;19.12;;;;;;;3.95;100.00;100452.97;1779636;79;21157;-77
2022/04/15 02:19:43;;;;;;;27.05;18.10;;;;;;;3.94;100.00;100449.41;1791009;79;21196;-77
2022/04/15 02:22:52;;;;;;;19.52;14.83;;;;;;;3.94;100.00;100441.29;1791143;79;21196;-77
2022/04/15 02:25:58;;;;;;;13.03;9.83;;;;;;;3.95;100.00;100441.67;1793967;79;21176;-77
2022/04/15 02:29:04;;;;;;;8.80;7.70;;;;;;;3.93;100.00;100446.34;1786179;79;21224;-77
2022/04/15 02:32:10;;;;;;;20.45;14.03;;;;;;;3.83;100.00;100456.23;1780723;79;21168;-77
2022/04/15 02:35:15;;;;;;;18.73;13.80;;;;;;;3.66;100.00;100461.70;1777386;79;21189;-77
2022/04/15 02:38:21;;;;;;;16.87;12.63;;;;;;;3.61;100.00;100464.42;1786357;78;21169;-76
2022/04/15 02:41:27;;;;;;;14.65;11.63;;;;;;;3.61;100.00;100466.63;1798555;79;21173;-77
2022/04/15 02:44:35;;;;;;;22.22;15.63;;;;;;;3.62;100.00;100465.64;1796235;79;21243;-77
2022/04/15 02:47:41;;;;;;;24.30;18.45;;;;;;;3.65;100.00;100460.48;1792588;79;21248;-76
2022/04/15 02:50:47;;;;;;;25.48;17.23;;;;;;;3.73;100.00;100466.97;1791571;79;21165;-76
2022/04/15 02:53:53;;;;;;;20.37;14.85;;;;;;;3.88;100.00;100465.31;1790608;79;21818;-76
2022/04/15 02:57:01;;;;;;;24.82;17.23;;;;;;;4.01;100.00;100467.36;1796153;79;21276;-76
2022/04/15 03:00:07;;;;;;;30.60;19.07;;;;;;;4.09;100.00;100470.24;1795061;79;21166;-77
2022/04/15 03:03:13;;;;;;;30.05;18.20;;;;;;;4.17;100.00;100473.16;1786467;79;21201;-77
2022/04/15 03:06:18;;;;;;;25.35;17.02;;;;;;;4.26;100.00;100475.58;1785093;79;21283;-77
2022/04/15 03:09:25;;;;;;;28.12;16.90;;;;;;;4.35;100.00;100474.30;1797776;79;21181;-77
2022/04/15 03:12:31;;;;;;;24.87;16.90;;;;;;;4.47;100.00;100479.16;1792895;79;21161;-77
2022/04/15 03:15:37;;;;;;;22.07;15.75;;;;;;;4.57;100.00;100480.07;1782153;79;21240;-76
2022/04/15 03:18:43;;;;;;;21.85;15.25;;;;;;;4.68;100.00;100491.82;1787644;79;21786;-76
2022/04/15 03:21:49;;;;;;;22.02;15.05;;;;;;;4.77;100.00;100491.02;1781361;79;21188;-77
2022/04/15 03:24:55;;;;;;;22.00;15.03;;;;;;;4.85;100.00;100489.85;1786473;79;22177;-77
2022/04/15 03:28:01;;;;;;;20.57;15.30;;;;;;;4.94;100.00;100499.88;1761870;79;21180;-77
2022/04/15 03:31:09;;;;;;;21.35;14.93;;;;;;;5.03;100.00;100500.39;1790450;79;21196;-77
2022/04/15 03:34:15;;;;;;;20.52;14.73;;;;;;;5.12;100.00;100502.29;1791530;79;21197;-77
2022/04/15 03:37:20;;;;;;;20.37;14.35;;;;;;;5.22;100.00;100499.64;1793757;79;21733;-77
2022/04/15 03:40:27;;;;;;;22.95;15.75;;;;;;;5.31;100.00;100498.78;1779887;79;21192;-77
2022/04/15 03:43:33;;;;;;;26.73;15.55;;;;;;;5.43;100.00;100501.41;1793732;79;21559;-77
2022/04/15 03:46:41;;;;;;;19.45;14.78;;;;;;;5.54;100.00;100497.22;1789031;79;21236;-77
2022/04/15 03:49:47;;;;;;;22.67;15.80;;;;;;;5.63;100.00;100495.88;1792964;79;21161;-77
2022/04/15 03:52:55;;;;;;;23.40;16.50;;;;;;;5.74;100.00;100498.98;1793905;79;21189;-77
2022/04/15 03:56:00;;;;;;;21.20;16.20;;;;;;;5.85;100.00;100511.06;1778230;79;21188;-78
2022/04/15 03:59:05;;;;;;;20.65;15.05;;;;;;;5.96;100.00;100502.45;1790074;79;21220;-77
2022/04/15 04:02:12;;;;;;;21.17;15.32;;;;;;;6.09;100.00;100503.89;1775720;79;21725;-77
2022/04/15 04:05:18;;;;;;;26.55;15.78;;;;;;;6.22;100.00;100510.41;1780791;79;21232;-77
2022/04/15 04:08:24;;;;;;;26.80;15.28;;;;;;;6.36;100.00;100511.33;1790679;79;21318;-77
2022/04/15 04:11:31;;;;;;;19.95;14.85;;;;;;;6.51;100.00;100508.16;1783981;79;21153;-75
2022/04/15 04:14:37;;;;;;;23.07;14.28;;;;;;;6.62;100.00;100506.62;1780468;79;21221;-77
2022/04/15 04:17:42;;;;;;;20.20;14.15;;;;;;;6.72;100.00;100515.61;1794335;79;21248;-77
2022/04/15 04:20:48;;;;;;;17.55;14.18;;;;;;;6.82;100.00;100517.83;1787903;79;21232;-80
2022/04/15 04:23:53;;;;;;;22.02;14.30;;;;;;;6.92;100.00;100515.09;1790906;79;21750;-78
2022/04/15 04:26:58;;;;;;;21.02;13.85;;;;;;;7.03;100.00;100520.33;1788910;79;21682;-76
2022/04/15 04:30:04;;;;;;;16.62;11.93;;;;;;;7.14;100.00;100522.86;1771134;79;21228;-78
2022/04/15 04:33:10;;;;;;;17.05;13.22;;;;;;;7.22;100.00;100520.77;1785736;79;21204;-77
2022/04/15 04:36:15;;;;;;;19.75;13.20;;;;;;;7.26;100.00;100519.46;1790110;79;21288;-77
2022/04/15 04:39:25;;;;;;;18.60;11.88;;;;;;;7.35;100.00;100519.92;1772360;79;21304;-78
2022/04/15 04:42:34;;;;;;;21.33;12.82;;;;;;;7.45;100.00;100522.59;1784324;79;21200;-78
2022/04/15 04:45:40;;;;;;;17.45;12.03;;;;;;;7.53;100.00;100519.98;1789702;79;21825;-77
2022/04/15 04:48:46;;;;;;;17.15;11.35;;;;;;;7.62;100.00;100523.62;1784214;79;21247;-77
2022/04/15 04:51:53;;;;;;;17.98;12.98;;;;;;;7.69;100.00;100528.33;1788211;79;21188;-77
2022/04/15 04:54:59;;;;;;;20.48;12.65;;;;;;;7.75;100.00;100528.21;1783117;79;21180;-77
2022/04/15 04:58:05;;;;;;;21.30;13.90;;;;;;;7.84;100.00;100525.94;1766521;79;21654;-77
2022/04/15 05:01:12;;;;;;;19.62;13.13;;;;;;;7.96;100.00;100524.38;1783041;79;21188;-77
2022/04/15 05:04:18;;;;;;;16.62;12.15;;;;;;;8.09;100.00;100524.34;1782836;79;21184;-77
2022/04/15 05:07:26;;;;;;;14.75;11.75;;;;;;;8.24;100.00;100523.29;1771877;79;21216;-77
2022/04/15 05:10:34;;;;;;;21.45;13.20;;;;;;;8.38;100.00;100528.73;1777697;79;21161;-78
2022/04/15 05:13:40;;;;;;;18.57;13.22;;;;;;;8.54;100.00;100525.28;1785967;78;21189;-77
2022/04/15 05:16:47;;;;;;;15.85;12.13;;;;;;;8.68;100.00;100533.73;1787404;79;21176;-77
2022/04/15 05:19:53;;;;;;;20.00;12.78;;;;;;;8.82;100.00;100540.49;1793572;79;21204;-78
2022/04/15 05:22:59;;;;;;;16.80;11.65;;;;;;;8.94;100.00;100536.50;1776494;79;21215;-77
2022/04/15 05:26:08;;;;;;;20.72;12.43;;;;;;;9.05;100.00;100531.27;1776251;79;21240;-77
2022/04/15 05:29:12;;;;;;;18.40;12.00;;;;;;;9.13;100.00;100538.16;1780595;79;21201;-77
2022/04/15 05:32:20;;;;;;;18.07;12.15;;;;;;;9.22;100.00;100541.76;1788221;79;21201;-78
2022/04/15 05:35:26;;;;;;;17.73;12.37;;;;;;;9.31;100.00;100536.69;1790528;79;21185;-77
2022/04/15 05:38:32;;;;;;;19.77;12.35;;;;;;;9.39;100.00;100539.98;1790985;79;21169;-78
2022/04/15 05:41:41;;;;;;;16.70;11.90;;;;;;;9.50;100.00;100545.66;1768209;79;21185;-78
2022/04/15 05:44:48;;;;;;;19.30;12.20;;;;;;;9.60;100.00;100544.53;1791071;79;21189;-78
2022/04/15 05:47:57;;;;;;;20.80;11.70;;;;;;;9.72;100.00;100545.08;1793515;79;21189;-78
2022/04/15 05:51:03;;;;;;;17.80;11.48;;;;;;;9.84;100.00;100548.38;1780486;79;21170;-77
2022/04/15 05:54:09;;;;;;;14.55;10.60;;;;;;;9.95;100.00;100542.08;1771486;80;21195;-78
2022/04/15 05:57:14;;;;;;;15.45;11.50;;;;;;;10.08;100.00;100548.44;1771738;79;21224;-77
2022/04/15 06:00:20;;;;;;;15.85;10.98;;;;;;;10.20;100.00;100539.39;1787611;79;21185;-77
2022/04/15 06:03:26;;;;;;;19.62;11.15;;;;;;;10.31;100.00;100545.11;1778062;79;21189;-78
2022/04/15 06:06:33;;;;;;;14.47;9.88;;;;;;;10.43;100.00;100551.42;1782358;79;21231;-78
2022/04/15 06:09:39;;;;;;;17.62;10.90;;;;;;;10.57;100.00;100550.41;1788360;79;21184;-78
2022/04/15 06:13:03;;;;;;;15.80;11.30;;;;;;;10.70;100.00;100553.48;1781549;79;21821;-77
2022/04/15 06:16:09;;;;;;;18.65;11.20;;;;;;;10.84;100.00;100554.69;1775326;79;21156;-78
2022/04/15 06:19:16;;;;;;;18.98;10.43;;;;;;;11.04;100.00;100552.44;1784299;79;21248;-77
2022/04/15 06:22:24;;;;;;;15.10;10.18;;;;;;;11.20;100.00;100558.75;1774368;79;21232;-78
2022/04/15 06:25:30;;;;;;;11.73;8.98;;;;;;;11.34;100.00;100562.66;1788810;79;21498;-78
2022/04/15 06:28:39;;;;;;;13.53;9.25;;;;;;;11.43;100.00;100568.94;1786110;79;21177;-78
2022/04/15 06:31:47;;;;;;;16.30;10.38;;;;;;;11.53;100.00;100566.88;1785104;79;21154;-77
2022/04/15 06:34:53;;;;;;;16.48;10.32;;;;;;;11.63;100.00;100572.15;1784412;79;21223;-78
2022/04/15 06:38:00;;;;;;;14.75;10.10;;;;;;;11.72;100.00;100565.61;1785309;79;21942;-78
2022/04/15 06:41:06;;;;;;;14.95;9.15;;;;;;;11.79;100.00;100566.59;1784730;79;21226;-78
2022/04/15 06:44:12;;;;;;;15.08;8.95;;;;;;;11.86;100.00;100569.00;1787606;79;21273;-78
2022/04/15 06:47:17;;;;;;;12.30;8.73;;;;;;;11.95;100.00;100572.53;1778706;79;21193;-78
2022/04/15 06:50:22;;;;;;;17.00;9.43;;;;;;;12.07;100.00;100570.26;1760375;81;21231;-78
2022/04/15 06:53:30;;;;;;;16.73;8.68;;;;;;;12.20;98.99;100567.27;1765058;81;21180;-78
2022/04/15 06:56:37;;;;;;;12.15;8.85;;;;;;;12.34;96.61;100568.91;1752771;81;21223;-78
2022/04/15 06:59:44;;;;;;;12.20;8.88;;;;;;;12.42;94.02;100569.70;1756561;81;21241;-77
2022/04/15 07:02:50;;;;;;;18.45;8.63;;;;;;;12.52;93.61;100562.09;1758379;81;21233;-77
2022/04/15 07:05:58;;;;;;;14.47;7.60;;;;;;;12.66;92.18;100566.45;1752969;81;21224;-77
2022/04/15 07:09:03;;;;;;;12.98;7.95;;;;;;;12.78;90.07;100571.82;1752808;81;21177;-78
2022/04/15 07:12:10;;;;;;;10.50;7.15;;;;;;;12.86;88.78;100573.66;1746297;81;21220;-78
2022/04/15 07:15:17;;;;;;;11.28;7.47;;;;;;;12.87;86.88;100572.09;1748326;81;21208;-79
2022/04/15 07:18:23;;;;;;;10.35;6.78;;;;;;;12.79;85.48;100580.38;1753252;81;21228;-77
2022/04/15 07:21:30;;;;;;;12.53;7.05;;;;;;;12.77;85.95;100589.34;1759278;81;21790;-77
2022/04/15 07:24:36;;;;;;;12.03;7.03;;;;;;;12.67;84.49;100590.11;1756036;81;21217;-82
2022/04/15 07:27:42;;;;;;;12.00;7.15;;;;;;;12.60;83.22;100589.97;1749908;79;21188;-82
2022/04/15 07:30:48;;;;;;;15.30;7.60;;;;;;;12.63;84.67;100595.63;1793083;79;21182;-78
2022/04/15 07:33:56;;;;;;;12.90;7.65;;;;;;;12.65;84.02;100590.78;1780184;79;21185;-78
2022/04/15 07:37:03;;;;;;;11.38;6.92;;;;;;;12.71;84.21;100589.55;1750852;80;21809;-78
2022/04/15 07:40:10;;;;;;;14.25;6.87;;;;;;;12.77;84.19;100591.55;1751031;80;21262;-77
2022/04/15 07:43:15;;;;;;;12.03;6.72;;;;;;;12.80;84.09;100597.21;1758975;81;21202;-78
2022/04/15 07:46:22;;;;;;;14.83;8.08;;;;;;;12.84;84.98;100594.92;1755282;81;21540;-78
2022/04/15 07:49:28;;;;;;;10.35;6.40;;;;;;;12.91;85.13;100599.51;1753553;81;21278;-78
2022/04/15 07:52:35;;;;;;;11.30;6.22;;;;;;;12.98;84.94;100595.49;1752944;81;21232;-78
2022/04/15 07:55:43;;;;;;;9.70;6.50;;;;;;;13.07;83.76;100594.91;1756903;81;21742;-77
2022/04/15 07:58:50;;;;;;;15.53;7.47;;;;;;;13.15;82.29;100592.09;1751475;81;21174;-78
2022/04/15 08:02:14;;;;;;;10.08;5.62;;;;;;;13.16;81.75;100590.52;1784081;79;21240;-77
2022/04/15 08:05:20;;;;;;;12.85;6.60;;;;;;;13.12;80.33;100592.45;1753613;80;21778;-77
2022/04/15 08:08:26;;;;;;;13.58;6.00;;;;;;;13.16;79.21;100586.40;1763042;80;21200;-78
2022/04/15 08:11:33;;;;;;;12.85;6.87;;;;;;;13.23;78.33;100592.91;1756262;81;21275;-78
2022/04/15 08:14:40;;;;;;;13.55;6.62;;;;;;;13.31;78.89;100591.95;1749066;80;21196;-78
2022/04/15 08:17:46;;;;;;;11.15;6.55;;;;;;;13.39;78.91;100590.50;1749041;80;21244;-78
2022/04/15 08:20:52;;;;;;;9.40;6.40;;;;;;;13.43;78.37;100589.09;1757754;81;21260;-78
2022/04/15 08:23:59;;;;;;;15.32;6.42;;;;;;;13.51;78.22;100589.53;1746136;80;21247;-78
2022/04/15 08:27:06;;;;;;;10.63;5.90;;;;;;;13.58;78.28;100590.47;1740342;81;21756;-79
2022/04/15 08:30:11;;;;;;;20.12;6.67;;;;;;;13.63;78.41;100587.15;1755195;80;21172;-78
2022/04/15 08:33:17;;;;;;;12.37;5.65;;;;;;;13.72;77.14;100592.88;1759837;80;21223;-79
2022/04/15 08:36:23;;;;;;;17.48;6.05;;;;;;;13.72;77.20;100592.88;1754832;81;21279;-78
2022/04/15 08:39:30;;;;;;;10.15;6.58;;;;;;;13.72;77.98;100586.02;1766186;79;22069;-78
2022/04/15 08:42:35;;;;;;;9.35;6.17;;;;;;;13.73;77.41;100583.06;1780833;80;21437;-78
2022/04/15 08:45:43;;;;;;;10.10;6.37;;;;;;;13.71;77.24;100581.56;1776903;80;21802;-78
2022/04/15 08:48:49;;;;;;;12.68;6.40;;;;;;;13.70;76.96;100588.96;1779208;80;21797;-78
2022/04/15 08:51:56;;;;;;;14.38;6.95;;;;;;;13.71;77.05;100581.56;1773656;79;21232;-77
2022/04/15 08:55:03;;;;;;;12.47;6.33;;;;;;;13.74;77.11;100579.82;1745974;79;21178;-78
2022/04/15 08:58:08;;;;;;;11.22;6.80;;;;;;;13.68;76.59;100581.94;1758811;80;21243;-78
2022/04/15 09:01:14;;;;;;;12.03;6.90;;;;;;;13.62;76.52;100585.45;1739946;81;21241;-78
2022/04/15 09:04:20;;;;;;;11.63;6.60;;;;;;;13.50;77.17;100580.44;1739264;81;21205;-78
2022/04/15 09:07:26;;;;;;;10.28;6.37;;;;;;;13.46;77.58;100579.10;1760112;80;21224;-77
2022/04/15 09:10:36;;;;;;;13.30;6.55;;;;;;;13.44;77.42;100577.05;1795972;79;21185;-78
2022/04/15 09:13:43;;;;;;;11.68;7.20;;;;;;;13.41;77.74;100570.58;1794811;79;21181;-77
2022/04/15 09:16:50;;;;;;;11.25;7.30;;;;;;;13.39;78.04;100574.02;1732182;79;21195;-78
2022/04/15 09:20:00;;;;;;;14.53;8.13;;;;;;;13.33;77.47;100567.91;1790016;79;21229;-78
2022/04/15 09:23:17;;;;;;;14.07;7.12;;;;;;;13.33;78.15;100567.91;1793637;79;21141;-78
2022/04/15 09:26:24;;;;;;;12.15;7.03;;;;;;;13.36;78.45;100568.91;1755003;81;21230;-77
2022/04/15 09:29:29;;;;;;;9.13;6.33;;;;;;;13.45;78.57;100571.88;1764446;80;21161;-77
2022/04/15 09:32:38;;;;;;;15.40;6.37;;;;;;;13.57;78.69;100569.53;1769351;79;21200;-78
2022/04/15 09:35:45;;;;;;;14.95;6.45;;;;;;;13.65;77.45;100573.56;1778859;79;21256;-78
2022/04/15 09:38:50;;;;;;;13.43;6.92;;;;;;;13.63;76.94;100572.03;1776494;79;21177;-77
2022/04/15 09:42:00;;;;;;;14.38;6.28;;;;;;;13.64;76.32;100572.36;1769183;79;21734;-79
2022/04/15 09:45:06;;;;;;;19.95;6.78;;;;;;;13.63;76.14;100563.78;1784882;79;21169;-78
2022/04/15 09:48:16;;;;;;;8.85;6.30;;;;;;;13.68;77.18;100571.78;1776129;79;21173;-78
2022/04/15 09:51:27;;;;;;;10.70;6.65;;;;;;;13.72;75.91;100566.77;1785256;79;21220;-79
2022/04/15 09:54:35;;;;;;;8.58;6.42;;;;;;;13.76;75.86;100562.59;1780268;79;21711;-78
2022/04/15 09:57:42;;;;;;;9.35;6.25;;;;;;;13.81;76.86;100560.13;1782805;79;21202;-78
2022/04/15 10:00:51;;;;;;;10.75;6.78;;;;;;;13.90;77.16;100567.23;1786456;79;21245;-78
2022/04/15 10:03:57;;;;;;;9.55;6.90;;;;;;;13.92;76.16;100566.50;1773018;79;21176;-78
2022/04/15 10:07:06;;;;;;;13.20;6.45;;;;;;;13.95;75.90;100562.00;1779443;79;21224;-78
2022/04/15 10:10:11;;;;;;;10.43;6.58;;;;;;;14.02;75.53;100563.45;1757750;79;21165;-79
2022/04/15 10:13:16;;;;;;;11.05;6.25;;;;;;;14.06;75.68;100558.74;1755255;81;21189;-83
2022/04/15 10:16:22;;;;;;;16.52;6.55;;;;;;;14.05;74.77;100557.05;1756862;81;21189;-82
2022/04/15 10:19:29;;;;;;;8.45;6.30;;;;;;;14.05;74.81;100559.80;1742043;81;21785;-82
2022/04/15 10:22:34;;;;;;;9.38;6.10;;;;;;;14.03;74.06;100550.90;1757316;81;21205;-82
2022/04/15 10:25:40;;;;;;;13.50;5.87;;;;;;;14.00;75.14;100551.80;1753423;81;21178;-82
2022/04/15 10:28:53;;;;;;;10.78;6.22;;;;;;;14.02;75.57;100553.33;1761818;81;22049;-82
2022/04/15 10:31:59;;;;;;;11.93;5.97;;;;;;;14.08;74.33;100549.47;1749145;81;21204;-83
2022/04/15 10:35:04;;;;;;;20.82;6.72;;;;;;;14.10;75.12;100551.48;1753947;81;21742;-83
2022/04/15 10:38:14;;;;;;;17.00;6.85;;;;;;;14.09;74.94;100549.27;1719043;81;21726;-79
2022/04/15 10:41:21;;;;;;;10.70;7.20;;;;;;;14.07;75.55;100543.13;1791536;79;21715;-78
2022/04/15 10:44:46;;;;;;;15.40;6.62;;;;;;;14.12;75.29;100545.30;1796587;79;21890;-79
2022/04/15 10:48:06;;;;;;;9.15;6.97;;;;;;;14.12;74.84;100542.54;1791420;79;21549;-80
2022/04/15 10:51:31;;;;;;;10.72;6.70;;;;;;;14.09;74.46;100544.30;1761855;79;21229;-77
2022/04/15 10:54:51;;;;;;;18.50;6.72;;;;;;;14.04;75.29;100538.84;1747893;80;21205;-76
2022/04/15 10:57:58;;;;;;;13.53;6.83;;;;;;;14.10;75.22;100545.47;1743294;81;21205;-77
2022/04/15 11:01:25;;;;;;;11.88;6.75;;;;;;;14.10;74.42;100541.86;1747806;81;21208;-77
2022/04/15 11:04:32;;;;;;;14.05;7.25;;;;;;;14.06;74.54;100537.27;1747413;81;21201;-77
2022/04/15 11:07:39;;;;;;;13.25;6.92;;;;;;;14.06;75.10;100542.24;1758430;80;21723;-77
2022/04/15 11:11:07;;;;;;;13.38;7.35;;;;;;;14.06;75.31;100542.77;1745839;81;21161;-77
2022/04/15 11:14:14;;;;;;;12.40;7.78;;;;;;;13.99;75.24;100540.48;1768762;80;21880;-78
2022/04/15 11:17:22;;;;;;;13.20;7.90;;;;;;;13.89;76.10;100540.78;1766920;80;21627;-77
2022/04/15 11:20:29;;;;;;;21.10;8.35;;;;;;;13.89;76.85;100537.19;1767664;80;21168;-78
2022/04/15 11:23:37;;;;;;;12.07;7.97;;;;;;;13.90;76.47;100535.61;1766690;80;21811;-78
2022/04/15 11:26:47;;;;;;;12.55;8.10;;;;;;;13.92;76.84;100536.78;1768129;80;21148;-78
2022/04/15 11:29:52;;;;;;;11.22;7.95;;;;;;;13.89;77.01;100530.31;1767508;80;21714;-78
2022/04/15 11:32:58;;;;;;;12.65;7.42;;;;;;;13.85;77.21;100527.08;1744212;81;21746;-77
2022/04/15 11:36:06;;;;;;;12.28;7.55;;;;;;;13.85;77.31;100527.08;1726728;81;21187;-78
2022/04/15 11:39:14;;;;;;;14.38;7.70;;;;;;;13.86;77.55;100521.06;1785004;79;21188;-78
2022/04/15 11:42:20;;;;;;;12.43;7.30;;;;;;;13.86;77.13;100513.66;1778248;79;21833;-78
2022/04/15 11:45:29;;;;;;;14.15;7.45;;;;;;;13.81;76.97;100519.73;1706565;80;21260;-77
2022/04/15 11:48:34;;;;;;;11.55;7.25;;;;;;;13.78;77.16;100522.01;1683042;84;21241;-78
2022/04/15 11:51:40;;;;;;;15.38;8.23;;;;;;;13.77;77.17;100516.19;1691348;83;21255;-78
2022/04/15 11:54:45;;;;;;;15.15;7.87;;;;;;;13.71;77.20;100515.06;1754157;80;21245;-77
2022/04/15 11:57:52;;;;;;;12.60;7.78;;;;;;;13.67;77.13;100518.39;1681693;84;21237;-79
2022/04/15 12:01:02;;;;;;;19.98;8.45;;;;;;;13.59;77.68;100516.58;1747572;81;21206;-78
2022/04/15 12:04:07;;;;;;;13.45;8.93;;;;;;;13.58;77.87;100512.66;1751511;81;21201;-77
2022/04/15 12:07:25;;;;;;;11.60;8.15;;;;;;;13.56;78.67;100508.73;1752206;81;21241;-77
2022/04/15 12:10:31;;;;;;;16.07;9.20;;;;;;;13.57;78.67;100502.72;1748495;80;21255;-78
2022/04/15 12:13:39;;;;;;;17.73;9.30;;;;;;;13.52;78.98;100495.89;1683306;83;21721;-82
2022/04/15 12:16:48;;;;;;;16.13;8.97;;;;;;;13.51;78.90;100498.32;1749937;82;21727;-83
2022/04/15 12:19:55;;;;;;;14.33;8.75;;;;;;;13.43;78.50;100496.19;1748881;82;21869;-83
2022/04/15 12:23:01;;;;;;;12.05;8.65;;;;;;;13.29;78.61;100489.13;1728572;81;21220;-82
2022/04/15 12:26:14;;;;;;;16.00;9.10;;;;;;;13.19;78.77;100487.69;1747700;80;21279;-82
2022/04/15 12:32:49;;;;;;;15.15;10.63;;;;;;;13.15;80.06;100480.86;1737678;81;21538;-83
2022/04/15 12:36:07;;;;;;;25.60;13.22;;;;;;;13.15;80.52;100484.98;1737900;81;21181;-82
2022/04/15 12:39:11;;;;;;;17.57;13.43;;;;;;;13.05;81.59;100481.99;1745900;81;21193;-82
2022/04/15 12:42:21;;;;;;;25.05;14.70;;;;;;;12.98;82.69;100475.53;1754916;81;21225;-82
2022/04/15 12:45:31;;;;;;;25.62;16.50;;;;;;;12.92;83.24;100477.66;1736480;81;21770;-82
2022/04/15 12:48:37;;;;;;;27.22;17.90;;;;;;;12.85;83.16;100475.35;1754907;81;21205;-82
2022/04/15 12:51:45;;;;;;;26.55;18.60;;;;;;;12.78;83.61;100473.86;1745392;81;21181;-82
2022/04/15 12:55:10;;;;;;;21.45;16.85;;;;;;;12.74;83.86;100474.41;1747738;80;21194;-82
2022/04/15 12:58:31;;;;;;;29.45;19.30;;;;;;;12.73;83.90;100481.80;1754216;81;21174;-81
2022/04/15 13:01:37;;;;;;;32.30;19.20;;;;;;;12.71;84.31;100481.14;1746710;81;21173;-82
2022/04/15 13:04:42;;;;;;;32.17;19.32;;;;;;;12.70;84.52;100475.82;1753105;80;22737;-83
2022/04/15 13:07:52;;;;;;;28.07;18.57;;;;;;;12.67;84.74;100478.44;1753712;81;21232;-83
2022/04/15 13:10:59;;;;;;;30.75;21.33;;;;;;;12.63;84.77;100472.98;1758110;81;21252;-82
2022/04/15 13:14:06;;;;;;;29.35;21.05;;;;;;;12.61;84.99;100470.08;1752167;81;21186;-83
2022/04/15 13:17:15;;;;;;;30.08;21.20;;;;;;;12.58;84.56;100464.98;1741501;81;21296;-82
2022/04/15 13:20:22;;;;;;;34.80;24.47;;;;;;;12.48;84.05;100461.13;1744200;81;21165;-82
2022/04/15 13:23:28;;;;;;;36.23;23.50;;;;;;;12.40;84.70;100468.05;1747422;81;21227;-82
2022/04/15 13:26:33;;;;;;;43.52;28.85;;;;;;;12.38;85.50;100457.27;1750302;82;21241;-82
2022/04/15 13:29:39;;;;;;;37.63;26.95;;;;;;;12.37;85.40;100456.91;1745778;81;21214;-78
2022/04/15 13:32:44;;;;;;;39.33;26.45;;;;;;;12.38;85.43;100456.42;1741600;81;21213;-78
2022/04/15 13:35:50;;;;;;;36.65;26.45;;;;;;;12.37;85.34;100455.53;1739138;81;21231;-78
2022/04/15 13:38:55;;;;;;;35.28;25.27;;;;;;;12.36;84.64;100448.35;1747660;81;21751;-78
2022/04/15 13:42:01;;;;;;;36.98;27.22;;;;;;;12.34;84.58;100452.34;1751712;81;21186;-78
2022/04/15 13:45:03;;;;;;;40.17;27.48;;;;;;;12.34;84.32;100445.48;1748824;81;21233;-78
2022/04/15 13:48:09;;;;;;;41.35;28.07;;;;;;;12.33;84.93;100446.48;1746708;81;21226;-82
2022/04/15 13:51:14;;;;;;;33.02;26.30;;;;;;;12.30;84.87;100449.09;1747419;80;21216;-82
2022/04/15 13:57:45;;;;;;;39.48;28.07;;;;;;;12.27;84.37;100451.67;1748407;81;21770;-78
2022/04/15 14:00:51;;;;;;;39.42;30.48;;;;;;;12.21;84.32;100440.60;1749284;81;21193;-79
2022/04/15 14:04:01;;;;;;;46.30;31.15;;;;;;;12.14;84.38;100447.84;1723703;81;21765;-78
2022/04/15 14:07:07;;;;;;;43.75;33.33;;;;;;;12.09;84.51;100442.05;1750435;81;21201;-78
2022/04/15 14:10:13;;;;;;;48.13;34.78;;;;;;;12.00;85.57;100439.40;1748815;82;21229;-78
2022/04/15 14:13:19;;;;;;;55.98;40.23;;;;;;;11.95;86.09;100444.58;1751767;81;21182;-77
2022/04/15 14:16:25;;;;;;;41.70;33.85;;;;;;;11.87;86.57;100439.14;1742005;81;21201;-78
2022/04/15 14:19:31;;;;;;;49.33;35.20;;;;;;;11.78;86.83;100443.78;1739697;81;21711;-78
2022/04/15 14:22:38;;;;;;;37.45;28.77;;;;;;;11.71;86.92;100437.30;1747430;82;21205;-77